sensor_id;sensor_type;location;lat;lon;timestamp;P1;durP1;ratioP1;P2;durP2;ratioP2
35326;SDS011;21436;52.348;20.928;2023-05-15T00:01:37;8.05;;;5.72;;
35326;SDS011;21436;52.348;20.928;2023-05-15T00:04:05;14.77;;;5.75;;
35326;SDS011;21436;52.348;20.928;2023-05-15T00:06:33;12.32;;;5.35;;
35326;SDS011;21436;52.348;20.928;2023-05-15T00:09:01;10.50;;;5.28;;
35326;SDS011;21436;52.348;20.928;2023-05-15T00:11:31;11.40;;;5.38;;
35326;SDS011;21436;52.348;20.928;2023-05-15T00:13:58;13.82;;;5.68;;
35326;SDS011;21436;52.348;20.928;2023-05-15T00:16:26;9.50;;;5.22;;
35326;SDS011;21436;52.348;20.928;2023-05-15T00:18:55;11.43;;;5.35;;
35326;SDS011;21436;52.348;20.928;2023-05-15T00:21:23;10.20;;;5.00;;
35326;SDS011;21436;52.348;20.928;2023-05-15T00:23:51;10.00;;;5.13;;
35326;SDS011;21436;52.348;20.928;2023-05-15T00:26:21;9.13;;;5.30;;
35326;SDS011;21436;52.348;20.928;2023-05-15T00:28:50;9.15;;;5.38;;
35326;SDS011;21436;52.348;20.928;2023-05-15T00:31:18;10.60;;;5.55;;
35326;SDS011;21436;52.348;20.928;2023-05-15T00:33:46;7.45;;;5.20;;
35326;SDS011;21436;52.348;20.928;2023-05-15T00:36:14;7.25;;;5.30;;
35326;SDS011;21436;52.348;20.928;2023-05-15T00:38:45;6.45;;;4.78;;
35326;SDS011;21436;52.348;20.928;2023-05-15T00:41:21;10.35;;;5.30;;
35326;SDS011;21436;52.348;20.928;2023-05-15T00:43:49;9.57;;;4.72;;
35326;SDS011;21436;52.348;20.928;2023-05-15T00:46:18;8.52;;;4.75;;
35326;SDS011;21436;52.348;20.928;2023-05-15T00:48:49;14.30;;;4.55;;
35326;SDS011;21436;52.348;20.928;2023-05-15T00:51:17;7.15;;;4.57;;
35326;SDS011;21436;52.348;20.928;2023-05-15T00:53:45;10.90;;;5.03;;
35326;SDS011;21436;52.348;20.928;2023-05-15T00:56:14;7.55;;;5.13;;
35326;SDS011;21436;52.348;20.928;2023-05-15T00:58:45;13.82;;;5.22;;
35326;SDS011;21436;52.348;20.928;2023-05-15T01:01:14;11.20;;;4.72;;
35326;SDS011;21436;52.348;20.928;2023-05-15T01:03:43;6.57;;;4.38;;
35326;SDS011;21436;52.348;20.928;2023-05-15T01:06:11;7.10;;;4.38;;
35326;SDS011;21436;52.348;20.928;2023-05-15T01:08:46;10.93;;;4.50;;
35326;SDS011;21436;52.348;20.928;2023-05-15T01:11:15;10.52;;;4.68;;
35326;SDS011;21436;52.348;20.928;2023-05-15T01:13:45;9.18;;;4.32;;
35326;SDS011;21436;52.348;20.928;2023-05-15T01:16:13;7.25;;;4.55;;
35326;SDS011;21436;52.348;20.928;2023-05-15T01:18:41;8.70;;;4.78;;
35326;SDS011;21436;52.348;20.928;2023-05-15T01:23:46;7.47;;;4.30;;
35326;SDS011;21436;52.348;20.928;2023-05-15T01:26:31;5.35;;;3.92;;
35326;SDS011;21436;52.348;20.928;2023-05-15T01:29:18;11.18;;;4.68;;
35326;SDS011;21436;52.348;20.928;2023-05-15T01:31:56;9.00;;;4.22;;
35326;SDS011;21436;52.348;20.928;2023-05-15T01:34:43;5.63;;;4.00;;
35326;SDS011;21436;52.348;20.928;2023-05-15T01:37:16;9.02;;;4.13;;
35326;SDS011;21436;52.348;20.928;2023-05-15T01:39:45;10.40;;;4.38;;
35326;SDS011;21436;52.348;20.928;2023-05-15T01:42:16;5.38;;;3.85;;
35326;SDS011;21436;52.348;20.928;2023-05-15T01:44:50;7.00;;;4.30;;
35326;SDS011;21436;52.348;20.928;2023-05-15T01:47:21;9.00;;;4.53;;
35326;SDS011;21436;52.348;20.928;2023-05-15T01:49:57;5.68;;;3.95;;
35326;SDS011;21436;52.348;20.928;2023-05-15T01:52:33;8.20;;;4.53;;
35326;SDS011;21436;52.348;20.928;2023-05-15T01:55:03;7.38;;;4.03;;
35326;SDS011;21436;52.348;20.928;2023-05-15T01:57:34;7.40;;;4.35;;
35326;SDS011;21436;52.348;20.928;2023-05-15T02:00:03;7.47;;;3.88;;
35326;SDS011;21436;52.348;20.928;2023-05-15T02:02:39;6.38;;;4.07;;
35326;SDS011;21436;52.348;20.928;2023-05-15T02:05:11;10.13;;;3.72;;
35326;SDS011;21436;52.348;20.928;2023-05-15T02:07:43;7.80;;;4.53;;
35326;SDS011;21436;52.348;20.928;2023-05-15T02:10:12;5.90;;;4.00;;
35326;SDS011;21436;52.348;20.928;2023-05-15T02:12:45;5.63;;;4.00;;
35326;SDS011;21436;52.348;20.928;2023-05-15T02:15:15;8.15;;;4.00;;
35326;SDS011;21436;52.348;20.928;2023-05-15T02:17:46;10.48;;;4.10;;
35326;SDS011;21436;52.348;20.928;2023-05-15T02:20:14;7.50;;;4.63;;
35326;SDS011;21436;52.348;20.928;2023-05-15T02:22:42;5.32;;;3.75;;
35326;SDS011;21436;52.348;20.928;2023-05-15T02:25:10;8.00;;;4.22;;
35326;SDS011;21436;52.348;20.928;2023-05-15T02:27:51;6.45;;;4.00;;
35326;SDS011;21436;52.348;20.928;2023-05-15T02:30:41;8.80;;;4.00;;
35326;SDS011;21436;52.348;20.928;2023-05-15T02:33:36;9.10;;;4.20;;
35326;SDS011;21436;52.348;20.928;2023-05-15T02:36:12;7.60;;;4.50;;
35326;SDS011;21436;52.348;20.928;2023-05-15T02:38:50;8.07;;;4.30;;
35326;SDS011;21436;52.348;20.928;2023-05-15T02:41:19;9.85;;;4.30;;
35326;SDS011;21436;52.348;20.928;2023-05-15T02:43:49;6.03;;;4.32;;
35326;SDS011;21436;52.348;20.928;2023-05-15T02:46:18;6.72;;;3.95;;
35326;SDS011;21436;52.348;20.928;2023-05-15T02:48:46;6.57;;;4.28;;
35326;SDS011;21436;52.348;20.928;2023-05-15T02:51:15;6.28;;;4.13;;
35326;SDS011;21436;52.348;20.928;2023-05-15T02:53:43;7.50;;;4.53;;
35326;SDS011;21436;52.348;20.928;2023-05-15T02:56:11;7.30;;;4.22;;
35326;SDS011;21436;52.348;20.928;2023-05-15T02:58:39;9.48;;;4.53;;
35326;SDS011;21436;52.348;20.928;2023-05-15T03:01:08;6.60;;;4.00;;
35326;SDS011;21436;52.348;20.928;2023-05-15T03:03:36;8.63;;;4.22;;
35326;SDS011;21436;52.348;20.928;2023-05-15T03:06:04;9.25;;;4.95;;
35326;SDS011;21436;52.348;20.928;2023-05-15T03:08:32;9.02;;;4.22;;
35326;SDS011;21436;52.348;20.928;2023-05-15T03:11:00;7.15;;;4.68;;
35326;SDS011;21436;52.348;20.928;2023-05-15T03:13:28;6.22;;;4.13;;
35326;SDS011;21436;52.348;20.928;2023-05-15T03:15:57;6.43;;;4.45;;
35326;SDS011;21436;52.348;20.928;2023-05-15T03:18:24;6.60;;;4.35;;
35326;SDS011;21436;52.348;20.928;2023-05-15T03:20:52;7.47;;;4.40;;
35326;SDS011;21436;52.348;20.928;2023-05-15T03:23:21;11.23;;;4.10;;
35326;SDS011;21436;52.348;20.928;2023-05-15T03:25:50;5.80;;;4.20;;
35326;SDS011;21436;52.348;20.928;2023-05-15T03:28:18;7.32;;;3.88;;
35326;SDS011;21436;52.348;20.928;2023-05-15T03:30:46;5.55;;;4.47;;
35326;SDS011;21436;52.348;20.928;2023-05-15T03:33:14;8.20;;;4.40;;
35326;SDS011;21436;52.348;20.928;2023-05-15T03:35:42;7.47;;;4.72;;
35326;SDS011;21436;52.348;20.928;2023-05-15T03:38:10;8.20;;;4.68;;
35326;SDS011;21436;52.348;20.928;2023-05-15T03:40:39;7.57;;;4.05;;
35326;SDS011;21436;52.348;20.928;2023-05-15T03:43:07;11.10;;;4.30;;
35326;SDS011;21436;52.348;20.928;2023-05-15T03:45:35;10.68;;;4.95;;
35326;SDS011;21436;52.348;20.928;2023-05-15T03:48:03;10.63;;;5.05;;
35326;SDS011;21436;52.348;20.928;2023-05-15T03:50:31;10.18;;;4.43;;
35326;SDS011;21436;52.348;20.928;2023-05-15T03:52:59;9.27;;;4.88;;
35326;SDS011;21436;52.348;20.928;2023-05-15T03:55:27;8.15;;;4.28;;
35326;SDS011;21436;52.348;20.928;2023-05-15T03:57:55;7.53;;;4.00;;
35326;SDS011;21436;52.348;20.928;2023-05-15T04:00:24;6.13;;;4.28;;
35326;SDS011;21436;52.348;20.928;2023-05-15T04:02:53;7.50;;;4.38;;
35326;SDS011;21436;52.348;20.928;2023-05-15T04:05:21;8.80;;;4.63;;
35326;SDS011;21436;52.348;20.928;2023-05-15T04:07:49;7.93;;;4.22;;
35326;SDS011;21436;52.348;20.928;2023-05-15T04:10:18;6.75;;;4.57;;
35326;SDS011;21436;52.348;20.928;2023-05-15T04:12:46;7.30;;;4.90;;
35326;SDS011;21436;52.348;20.928;2023-05-15T04:15:21;8.38;;;4.47;;
35326;SDS011;21436;52.348;20.928;2023-05-15T04:17:50;8.57;;;4.78;;
35326;SDS011;21436;52.348;20.928;2023-05-15T04:20:20;9.55;;;4.63;;
35326;SDS011;21436;52.348;20.928;2023-05-15T04:22:49;8.70;;;4.53;;
35326;SDS011;21436;52.348;20.928;2023-05-15T04:25:18;9.48;;;4.43;;
35326;SDS011;21436;52.348;20.928;2023-05-15T04:27:51;12.48;;;4.63;;
35326;SDS011;21436;52.348;20.928;2023-05-15T04:30:19;8.27;;;4.55;;
35326;SDS011;21436;52.348;20.928;2023-05-15T04:32:47;8.60;;;4.57;;
35326;SDS011;21436;52.348;20.928;2023-05-15T04:35:16;8.63;;;5.43;;
35326;SDS011;21436;52.348;20.928;2023-05-15T04:37:44;11.82;;;4.80;;
35326;SDS011;21436;52.348;20.928;2023-05-15T04:40:20;8.30;;;5.03;;
35326;SDS011;21436;52.348;20.928;2023-05-15T04:42:48;11.65;;;5.53;;
35326;SDS011;21436;52.348;20.928;2023-05-15T04:45:16;10.50;;;4.57;;
35326;SDS011;21436;52.348;20.928;2023-05-15T04:47:44;11.15;;;5.47;;
35326;SDS011;21436;52.348;20.928;2023-05-15T04:50:13;6.82;;;5.13;;
35326;SDS011;21436;52.348;20.928;2023-05-15T04:52:40;7.80;;;5.20;;
35326;SDS011;21436;52.348;20.928;2023-05-15T04:55:10;10.25;;;4.90;;
35326;SDS011;21436;52.348;20.928;2023-05-15T04:57:38;13.70;;;4.88;;
35326;SDS011;21436;52.348;20.928;2023-05-15T05:00:06;6.93;;;4.97;;
35326;SDS011;21436;52.348;20.928;2023-05-15T05:02:38;6.60;;;4.75;;
35326;SDS011;21436;52.348;20.928;2023-05-15T05:05:08;9.00;;;5.07;;
35326;SDS011;21436;52.348;20.928;2023-05-15T05:07:36;8.57;;;5.47;;
35326;SDS011;21436;52.348;20.928;2023-05-15T05:10:05;8.63;;;4.65;;
35326;SDS011;21436;52.348;20.928;2023-05-15T05:12:34;8.95;;;5.00;;
35326;SDS011;21436;52.348;20.928;2023-05-15T05:15:02;8.18;;;5.30;;
35326;SDS011;21436;52.348;20.928;2023-05-15T05:17:31;7.60;;;4.72;;
35326;SDS011;21436;52.348;20.928;2023-05-15T05:19:59;10.65;;;5.07;;
35326;SDS011;21436;52.348;20.928;2023-05-15T05:22:29;10.05;;;5.07;;
35326;SDS011;21436;52.348;20.928;2023-05-15T05:24:57;8.05;;;5.10;;
35326;SDS011;21436;52.348;20.928;2023-05-15T05:27:24;8.20;;;4.47;;
35326;SDS011;21436;52.348;20.928;2023-05-15T05:29:53;7.82;;;5.22;;
35326;SDS011;21436;52.348;20.928;2023-05-15T05:32:21;10.63;;;4.97;;
35326;SDS011;21436;52.348;20.928;2023-05-15T05:34:50;11.77;;;5.25;;
35326;SDS011;21436;52.348;20.928;2023-05-15T05:37:18;8.57;;;4.78;;
35326;SDS011;21436;52.348;20.928;2023-05-15T05:39:48;5.70;;;4.43;;
35326;SDS011;21436;52.348;20.928;2023-05-15T05:42:16;10.68;;;4.72;;
35326;SDS011;21436;52.348;20.928;2023-05-15T05:44:45;10.70;;;4.70;;
35326;SDS011;21436;52.348;20.928;2023-05-15T05:47:14;7.78;;;5.22;;
35326;SDS011;21436;52.348;20.928;2023-05-15T05:49:43;9.68;;;5.05;;
35326;SDS011;21436;52.348;20.928;2023-05-15T05:52:15;10.45;;;4.68;;
35326;SDS011;21436;52.348;20.928;2023-05-15T05:54:45;14.82;;;4.85;;
35326;SDS011;21436;52.348;20.928;2023-05-15T05:57:14;12.13;;;4.75;;
35326;SDS011;21436;52.348;20.928;2023-05-15T05:59:44;7.78;;;4.43;;
35326;SDS011;21436;52.348;20.928;2023-05-15T06:02:13;7.60;;;4.53;;
35326;SDS011;21436;52.348;20.928;2023-05-15T06:04:42;12.82;;;5.07;;
35326;SDS011;21436;52.348;20.928;2023-05-15T06:07:11;9.98;;;4.60;;
35326;SDS011;21436;52.348;20.928;2023-05-15T06:09:40;12.18;;;5.25;;
35326;SDS011;21436;52.348;20.928;2023-05-15T06:12:09;14.50;;;4.72;;
35326;SDS011;21436;52.348;20.928;2023-05-15T06:14:37;11.43;;;5.05;;
35326;SDS011;21436;52.348;20.928;2023-05-15T06:17:05;17.65;;;5.18;;
35326;SDS011;21436;52.348;20.928;2023-05-15T06:19:33;13.30;;;4.97;;
35326;SDS011;21436;52.348;20.928;2023-05-15T06:22:01;12.88;;;5.22;;
35326;SDS011;21436;52.348;20.928;2023-05-15T06:24:29;13.88;;;5.00;;
35326;SDS011;21436;52.348;20.928;2023-05-15T06:26:57;10.90;;;4.35;;
35326;SDS011;21436;52.348;20.928;2023-05-15T06:29:25;12.35;;;4.53;;
35326;SDS011;21436;52.348;20.928;2023-05-15T06:31:54;8.00;;;4.47;;
35326;SDS011;21436;52.348;20.928;2023-05-15T06:34:22;9.80;;;4.28;;
35326;SDS011;21436;52.348;20.928;2023-05-15T06:36:50;9.60;;;4.00;;
35326;SDS011;21436;52.348;20.928;2023-05-15T06:39:19;7.05;;;4.28;;
35326;SDS011;21436;52.348;20.928;2023-05-15T06:41:47;10.15;;;4.05;;
35326;SDS011;21436;52.348;20.928;2023-05-15T06:44:18;8.68;;;4.32;;
35326;SDS011;21436;52.348;20.928;2023-05-15T06:46:46;8.38;;;4.35;;
35326;SDS011;21436;52.348;20.928;2023-05-15T06:49:14;9.73;;;4.93;;
35326;SDS011;21436;52.348;20.928;2023-05-15T06:51:42;18.58;;;5.50;;
35326;SDS011;21436;52.348;20.928;2023-05-15T06:54:11;6.15;;;4.55;;
35326;SDS011;21436;52.348;20.928;2023-05-15T06:56:40;8.48;;;5.00;;
35326;SDS011;21436;52.348;20.928;2023-05-15T06:59:08;11.75;;;5.38;;
35326;SDS011;21436;52.348;20.928;2023-05-15T07:01:36;10.98;;;5.53;;
35326;SDS011;21436;52.348;20.928;2023-05-15T07:04:06;14.32;;;5.93;;
35326;SDS011;21436;52.348;20.928;2023-05-15T07:06:34;10.98;;;6.03;;
35326;SDS011;21436;52.348;20.928;2023-05-15T07:09:04;14.10;;;6.38;;
35326;SDS011;21436;52.348;20.928;2023-05-15T07:11:33;9.07;;;5.75;;
35326;SDS011;21436;52.348;20.928;2023-05-15T07:14:05;9.20;;;6.70;;
35326;SDS011;21436;52.348;20.928;2023-05-15T07:16:33;9.13;;;6.18;;
35326;SDS011;21436;52.348;20.928;2023-05-15T07:19:02;10.27;;;6.78;;
35326;SDS011;21436;52.348;20.928;2023-05-15T07:21:30;14.48;;;6.90;;
35326;SDS011;21436;52.348;20.928;2023-05-15T07:23:59;28.67;;;10.55;;
35326;SDS011;21436;52.348;20.928;2023-05-15T07:26:30;32.33;;;10.00;;
35326;SDS011;21436;52.348;20.928;2023-05-15T07:31:38;13.38;;;7.03;;
35326;SDS011;21436;52.348;20.928;2023-05-15T07:34:08;10.80;;;6.97;;
35326;SDS011;21436;52.348;20.928;2023-05-15T07:36:37;10.15;;;6.88;;
35326;SDS011;21436;52.348;20.928;2023-05-15T07:39:05;10.23;;;7.35;;
35326;SDS011;21436;52.348;20.928;2023-05-15T07:41:33;9.45;;;7.10;;
35326;SDS011;21436;52.348;20.928;2023-05-15T07:44:02;12.38;;;6.97;;
35326;SDS011;21436;52.348;20.928;2023-05-15T07:46:30;12.18;;;7.60;;
35326;SDS011;21436;52.348;20.928;2023-05-15T07:48:59;13.05;;;7.97;;
35326;SDS011;21436;52.348;20.928;2023-05-15T07:51:27;12.63;;;7.47;;
35326;SDS011;21436;52.348;20.928;2023-05-15T07:53:55;15.55;;;9.15;;
35326;SDS011;21436;52.348;20.928;2023-05-15T07:56:23;8.70;;;7.80;;
35326;SDS011;21436;52.348;20.928;2023-05-15T07:58:52;11.27;;;8.00;;
35326;SDS011;21436;52.348;20.928;2023-05-15T08:01:20;13.52;;;8.35;;
35326;SDS011;21436;52.348;20.928;2023-05-15T08:03:49;12.43;;;8.35;;
35326;SDS011;21436;52.348;20.928;2023-05-15T08:06:17;11.10;;;8.63;;
35326;SDS011;21436;52.348;20.928;2023-05-15T08:08:45;20.13;;;9.55;;
35326;SDS011;21436;52.348;20.928;2023-05-15T08:11:14;13.88;;;9.32;;
35326;SDS011;21436;52.348;20.928;2023-05-15T08:13:43;12.23;;;8.50;;
35326;SDS011;21436;52.348;20.928;2023-05-15T08:16:11;11.13;;;8.55;;
35326;SDS011;21436;52.348;20.928;2023-05-15T08:18:39;13.13;;;8.43;;
35326;SDS011;21436;52.348;20.928;2023-05-15T08:21:07;11.75;;;8.00;;
35326;SDS011;21436;52.348;20.928;2023-05-15T08:23:36;14.13;;;8.30;;
35326;SDS011;21436;52.348;20.928;2023-05-15T08:26:04;13.68;;;8.77;;
35326;SDS011;21436;52.348;20.928;2023-05-15T08:28:32;10.50;;;8.48;;
35326;SDS011;21436;52.348;20.928;2023-05-15T08:31:00;11.43;;;8.85;;
35326;SDS011;21436;52.348;20.928;2023-05-15T08:33:29;19.52;;;9.32;;
35326;SDS011;21436;52.348;20.928;2023-05-15T08:35:56;12.77;;;9.00;;
35326;SDS011;21436;52.348;20.928;2023-05-15T08:38:25;14.50;;;9.30;;
35326;SDS011;21436;52.348;20.928;2023-05-15T08:40:53;11.63;;;8.48;;
35326;SDS011;21436;52.348;20.928;2023-05-15T08:43:25;14.55;;;8.50;;
35326;SDS011;21436;52.348;20.928;2023-05-15T08:45:54;13.00;;;9.30;;
35326;SDS011;21436;52.348;20.928;2023-05-15T08:48:22;14.55;;;9.73;;
35326;SDS011;21436;52.348;20.928;2023-05-15T08:50:52;13.02;;;8.57;;
35326;SDS011;21436;52.348;20.928;2023-05-15T08:53:20;10.93;;;9.15;;
35326;SDS011;21436;52.348;20.928;2023-05-15T08:55:49;13.25;;;9.30;;
35326;SDS011;21436;52.348;20.928;2023-05-15T08:58:17;15.07;;;8.98;;
35326;SDS011;21436;52.348;20.928;2023-05-15T09:00:47;12.70;;;9.07;;
35326;SDS011;21436;52.348;20.928;2023-05-15T09:03:16;11.10;;;9.13;;
35326;SDS011;21436;52.348;20.928;2023-05-15T09:05:46;12.48;;;8.68;;
35326;SDS011;21436;52.348;20.928;2023-05-15T09:08:15;18.95;;;8.93;;
35326;SDS011;21436;52.348;20.928;2023-05-15T09:10:43;14.65;;;9.93;;
35326;SDS011;21436;52.348;20.928;2023-05-15T09:13:12;16.42;;;9.82;;
35326;SDS011;21436;52.348;20.928;2023-05-15T09:15:41;17.20;;;10.65;;
35326;SDS011;21436;52.348;20.928;2023-05-15T09:18:10;18.00;;;10.60;;
35326;SDS011;21436;52.348;20.928;2023-05-15T09:20:39;16.15;;;10.32;;
35326;SDS011;21436;52.348;20.928;2023-05-15T09:23:20;19.52;;;10.73;;
35326;SDS011;21436;52.348;20.928;2023-05-15T09:28:30;18.27;;;11.13;;
35326;SDS011;21436;52.348;20.928;2023-05-15T09:31:02;13.77;;;10.20;;
35326;SDS011;21436;52.348;20.928;2023-05-15T09:33:33;13.00;;;10.45;;
35326;SDS011;21436;52.348;20.928;2023-05-15T09:36:04;16.00;;;11.25;;
35326;SDS011;21436;52.348;20.928;2023-05-15T09:38:38;17.73;;;11.57;;
35326;SDS011;21436;52.348;20.928;2023-05-15T09:41:08;17.92;;;11.10;;
35326;SDS011;21436;52.348;20.928;2023-05-15T09:43:39;17.98;;;11.10;;
35326;SDS011;21436;52.348;20.928;2023-05-15T09:46:07;18.30;;;11.30;;
35326;SDS011;21436;52.348;20.928;2023-05-15T09:48:36;17.38;;;11.93;;
35326;SDS011;21436;52.348;20.928;2023-05-15T09:51:05;15.93;;;10.80;;
35326;SDS011;21436;52.348;20.928;2023-05-15T09:53:42;19.27;;;11.50;;
35326;SDS011;21436;52.348;20.928;2023-05-15T09:56:15;15.40;;;11.35;;
35326;SDS011;21436;52.348;20.928;2023-05-15T10:01:22;20.67;;;11.93;;
35326;SDS011;21436;52.348;20.928;2023-05-15T10:04:05;17.00;;;11.32;;
35326;SDS011;21436;52.348;20.928;2023-05-15T10:06:37;15.65;;;12.10;;
35326;SDS011;21436;52.348;20.928;2023-05-15T10:09:10;21.48;;;12.57;;
35326;SDS011;21436;52.348;20.928;2023-05-15T10:11:39;18.38;;;13.10;;
35326;SDS011;21436;52.348;20.928;2023-05-15T10:14:12;19.45;;;13.40;;
35326;SDS011;21436;52.348;20.928;2023-05-15T10:16:40;19.20;;;13.77;;
35326;SDS011;21436;52.348;20.928;2023-05-15T10:19:09;20.52;;;13.73;;
35326;SDS011;21436;52.348;20.928;2023-05-15T10:21:39;21.73;;;14.18;;
35326;SDS011;21436;52.348;20.928;2023-05-15T10:24:08;19.35;;;13.23;;
35326;SDS011;21436;52.348;20.928;2023-05-15T10:26:38;18.42;;;12.70;;
35326;SDS011;21436;52.348;20.928;2023-05-15T10:29:09;21.50;;;13.70;;
35326;SDS011;21436;52.348;20.928;2023-05-15T10:31:41;20.20;;;12.82;;
35326;SDS011;21436;52.348;20.928;2023-05-15T10:34:09;19.98;;;12.70;;
35326;SDS011;21436;52.348;20.928;2023-05-15T10:36:37;20.23;;;13.18;;
35326;SDS011;21436;52.348;20.928;2023-05-15T10:39:06;19.67;;;13.20;;
35326;SDS011;21436;52.348;20.928;2023-05-15T10:41:35;19.70;;;13.40;;
35326;SDS011;21436;52.348;20.928;2023-05-15T10:44:05;17.13;;;12.38;;
35326;SDS011;21436;52.348;20.928;2023-05-15T10:46:34;21.50;;;13.32;;
35326;SDS011;21436;52.348;20.928;2023-05-15T10:49:03;17.83;;;14.18;;
35326;SDS011;21436;52.348;20.928;2023-05-15T10:51:32;21.95;;;13.90;;
35326;SDS011;21436;52.348;20.928;2023-05-15T10:54:03;21.08;;;14.30;;
35326;SDS011;21436;52.348;20.928;2023-05-15T10:56:32;20.98;;;15.00;;
35326;SDS011;21436;52.348;20.928;2023-05-15T10:59:05;23.85;;;16.30;;
35326;SDS011;21436;52.348;20.928;2023-05-15T11:01:38;23.90;;;15.07;;
35326;SDS011;21436;52.348;20.928;2023-05-15T11:04:09;25.67;;;16.23;;
35326;SDS011;21436;52.348;20.928;2023-05-15T11:06:42;18.40;;;13.35;;
35326;SDS011;21436;52.348;20.928;2023-05-15T11:14:20;17.92;;;13.10;;
35326;SDS011;21436;52.348;20.928;2023-05-15T11:22:38;22.92;;;16.23;;
35326;SDS011;21436;52.348;20.928;2023-05-15T11:24:56;20.63;;;15.23;;
35326;SDS011;21436;52.348;20.928;2023-05-15T11:27:31;24.92;;;15.98;;
35326;SDS011;21436;52.348;20.928;2023-05-15T11:35:38;25.98;;;16.55;;
35326;SDS011;21436;52.348;20.928;2023-05-15T11:43:28;22.95;;;15.88;;
35326;SDS011;21436;52.348;20.928;2023-05-15T11:48:31;24.30;;;16.33;;
35326;SDS011;21436;52.348;20.928;2023-05-15T11:51:02;25.95;;;16.08;;
35326;SDS011;21436;52.348;20.928;2023-05-15T11:53:31;24.88;;;16.52;;
35326;SDS011;21436;52.348;20.928;2023-05-15T11:56:01;23.38;;;14.73;;
35326;SDS011;21436;52.348;20.928;2023-05-15T11:58:29;21.30;;;15.35;;
35326;SDS011;21436;52.348;20.928;2023-05-15T12:00:58;23.88;;;15.13;;
35326;SDS011;21436;52.348;20.928;2023-05-15T12:03:31;22.50;;;13.90;;
35326;SDS011;21436;52.348;20.928;2023-05-15T12:06:01;22.13;;;15.88;;
35326;SDS011;21436;52.348;20.928;2023-05-15T12:08:33;20.70;;;14.60;;
35326;SDS011;21436;52.348;20.928;2023-05-15T12:13:32;17.67;;;14.30;;
35326;SDS011;21436;52.348;20.928;2023-05-15T12:16:01;18.50;;;12.90;;
35326;SDS011;21436;52.348;20.928;2023-05-15T12:18:31;17.30;;;12.85;;
35326;SDS011;21436;52.348;20.928;2023-05-15T12:21:00;18.38;;;13.77;;
35326;SDS011;21436;52.348;20.928;2023-05-15T12:23:30;20.27;;;14.50;;
35326;SDS011;21436;52.348;20.928;2023-05-15T12:25:59;22.35;;;15.13;;
35326;SDS011;21436;52.348;20.928;2023-05-15T12:28:31;20.60;;;14.98;;
35326;SDS011;21436;52.348;20.928;2023-05-15T12:31:01;18.20;;;12.93;;
35326;SDS011;21436;52.348;20.928;2023-05-15T12:33:30;19.02;;;14.38;;
35326;SDS011;21436;52.348;20.928;2023-05-15T12:35:58;19.48;;;14.52;;
35326;SDS011;21436;52.348;20.928;2023-05-15T12:38:28;18.40;;;12.57;;
35326;SDS011;21436;52.348;20.928;2023-05-15T12:40:57;19.00;;;14.85;;
35326;SDS011;21436;52.348;20.928;2023-05-15T12:43:25;20.75;;;14.75;;
35326;SDS011;21436;52.348;20.928;2023-05-15T12:45:54;19.70;;;15.52;;
35326;SDS011;21436;52.348;20.928;2023-05-15T12:48:29;20.95;;;15.43;;
35326;SDS011;21436;52.348;20.928;2023-05-15T12:51:08;22.75;;;14.65;;
35326;SDS011;21436;52.348;20.928;2023-05-15T12:53:36;21.50;;;15.95;;
35326;SDS011;21436;52.348;20.928;2023-05-15T12:56:09;18.33;;;14.55;;
35326;SDS011;21436;52.348;20.928;2023-05-15T12:58:42;20.85;;;14.63;;
35326;SDS011;21436;52.348;20.928;2023-05-15T13:01:10;21.60;;;14.90;;
35326;SDS011;21436;52.348;20.928;2023-05-15T13:03:39;18.50;;;14.65;;
35326;SDS011;21436;52.348;20.928;2023-05-15T13:06:09;19.40;;;15.18;;
35326;SDS011;21436;52.348;20.928;2023-05-15T13:08:38;23.27;;;15.60;;
35326;SDS011;21436;52.348;20.928;2023-05-15T13:11:12;20.08;;;14.38;;
35326;SDS011;21436;52.348;20.928;2023-05-15T13:13:41;25.40;;;16.58;;
35326;SDS011;21436;52.348;20.928;2023-05-15T13:16:23;22.30;;;16.75;;
35326;SDS011;21436;52.348;20.928;2023-05-15T13:18:52;20.13;;;14.70;;
35326;SDS011;21436;52.348;20.928;2023-05-15T13:21:21;21.75;;;15.68;;
35326;SDS011;21436;52.348;20.928;2023-05-15T13:23:49;26.42;;;18.08;;
35326;SDS011;21436;52.348;20.928;2023-05-15T13:26:18;26.48;;;19.77;;
35326;SDS011;21436;52.348;20.928;2023-05-15T13:28:47;27.00;;;19.95;;
35326;SDS011;21436;52.348;20.928;2023-05-15T13:31:16;27.23;;;19.98;;
35326;SDS011;21436;52.348;20.928;2023-05-15T13:33:44;28.27;;;20.95;;
35326;SDS011;21436;52.348;20.928;2023-05-15T13:36:13;28.35;;;19.70;;
35326;SDS011;21436;52.348;20.928;2023-05-15T13:38:40;32.17;;;22.80;;
35326;SDS011;21436;52.348;20.928;2023-05-15T13:41:09;28.83;;;20.92;;
35326;SDS011;21436;52.348;20.928;2023-05-15T13:43:37;27.73;;;20.63;;
35326;SDS011;21436;52.348;20.928;2023-05-15T13:46:06;28.25;;;21.25;;
35326;SDS011;21436;52.348;20.928;2023-05-15T13:48:34;24.67;;;18.35;;
35326;SDS011;21436;52.348;20.928;2023-05-15T13:51:02;30.85;;;20.98;;
35326;SDS011;21436;52.348;20.928;2023-05-15T13:53:30;29.67;;;18.90;;
35326;SDS011;21436;52.348;20.928;2023-05-15T13:55:58;30.73;;;21.25;;
35326;SDS011;21436;52.348;20.928;2023-05-15T13:58:26;29.88;;;21.00;;
35326;SDS011;21436;52.348;20.928;2023-05-15T14:00:55;31.33;;;20.63;;
35326;SDS011;21436;52.348;20.928;2023-05-15T14:03:23;28.83;;;20.75;;
35326;SDS011;21436;52.348;20.928;2023-05-15T14:05:51;26.55;;;20.42;;
35326;SDS011;21436;52.348;20.928;2023-05-15T14:08:20;28.20;;;20.10;;
35326;SDS011;21436;52.348;20.928;2023-05-15T14:10:48;31.92;;;19.63;;
35326;SDS011;21436;52.348;20.928;2023-05-15T14:13:17;26.80;;;19.80;;
35326;SDS011;21436;52.348;20.928;2023-05-15T14:15:45;25.13;;;19.40;;
35326;SDS011;21436;52.348;20.928;2023-05-15T14:18:13;27.88;;;20.55;;
35326;SDS011;21436;52.348;20.928;2023-05-15T14:20:41;24.90;;;18.88;;
35326;SDS011;21436;52.348;20.928;2023-05-15T14:23:10;28.08;;;19.92;;
35326;SDS011;21436;52.348;20.928;2023-05-15T14:25:39;24.55;;;19.88;;
35326;SDS011;21436;52.348;20.928;2023-05-15T14:28:07;26.88;;;19.42;;
35326;SDS011;21436;52.348;20.928;2023-05-15T14:30:36;29.95;;;20.27;;
35326;SDS011;21436;52.348;20.928;2023-05-15T14:33:04;24.63;;;18.30;;
35326;SDS011;21436;52.348;20.928;2023-05-15T14:35:32;24.55;;;18.67;;
35326;SDS011;21436;52.348;20.928;2023-05-15T14:38:00;25.92;;;17.85;;
35326;SDS011;21436;52.348;20.928;2023-05-15T14:40:29;23.30;;;18.35;;
35326;SDS011;21436;52.348;20.928;2023-05-15T14:42:57;27.10;;;19.30;;
35326;SDS011;21436;52.348;20.928;2023-05-15T14:45:25;27.70;;;19.05;;
35326;SDS011;21436;52.348;20.928;2023-05-15T14:47:53;24.88;;;18.05;;
35326;SDS011;21436;52.348;20.928;2023-05-15T14:50:22;23.38;;;19.20;;
35326;SDS011;21436;52.348;20.928;2023-05-15T14:52:51;27.75;;;18.83;;
35326;SDS011;21436;52.348;20.928;2023-05-15T14:55:19;23.90;;;18.98;;
35326;SDS011;21436;52.348;20.928;2023-05-15T14:57:48;23.67;;;17.63;;
35326;SDS011;21436;52.348;20.928;2023-05-15T15:00:17;28.75;;;20.10;;
35326;SDS011;21436;52.348;20.928;2023-05-15T15:02:45;25.52;;;18.70;;
35326;SDS011;21436;52.348;20.928;2023-05-15T15:05:13;23.83;;;19.08;;
35326;SDS011;21436;52.348;20.928;2023-05-15T15:10:36;27.40;;;18.67;;
35326;SDS011;21436;52.348;20.928;2023-05-15T15:13:05;26.13;;;19.52;;
35326;SDS011;21436;52.348;20.928;2023-05-15T15:15:35;29.75;;;19.75;;